createdAt,value
2023-01-17T00:01:41.048Z,97485.53
2023-01-17T00:04:26.112Z,97480.47
2023-01-17T00:07:10.811Z,97469.25
2023-01-17T00:09:56.983Z,97475.41
2023-01-17T00:12:27.364Z,97467.66
2023-01-17T00:14:54.745Z,97467.25
2023-01-17T00:17:24.697Z,97457.59
2023-01-17T00:20:09.792Z,97456.00
2023-01-17T00:22:54.924Z,97450.56
2023-01-17T00:25:42.696Z,97451.78
2023-01-17T00:28:09.189Z,97449.06
2023-01-17T00:30:35.518Z,97447.53
2023-01-17T00:33:01.813Z,97444.41
2023-01-17T00:35:28.805Z,97434.34
2023-01-17T00:38:05.184Z,97431.59
2023-01-17T00:40:32.095Z,97437.44
2023-01-17T00:43:16.913Z,97442.38
2023-01-17T00:46:02.592Z,97439.69
2023-01-17T00:48:47.824Z,97438.09
2023-01-17T00:51:32.466Z,97440.88
2023-01-17T00:54:18.977Z,97436.63
2023-01-17T00:57:03.919Z,97433.53
2023-01-17T00:59:48.526Z,97430.78
2023-01-17T01:02:33.311Z,97426.44
2023-01-17T01:05:18.416Z,97435.75
2023-01-17T01:08:03.138Z,97422.25
2023-01-17T01:10:47.765Z,97420.66
2023-01-17T01:13:33.215Z,97427.28
2023-01-17T01:16:19.021Z,97420.34
2023-01-17T01:19:04.027Z,97433.91
2023-01-17T01:21:49.280Z,97430.78
2023-01-17T01:24:34.546Z,97428.09
2023-01-17T01:27:19.886Z,97432.72
2023-01-17T01:30:04.599Z,97431.47
2023-01-17T01:32:52.936Z,97426.88
2023-01-17T01:35:19.265Z,97422.97
2023-01-17T01:37:45.646Z,97414.47
2023-01-17T01:40:12.411Z,97417.53
2023-01-17T01:42:47.712Z,97414.78
2023-01-17T01:45:18.171Z,97415.97
2023-01-17T01:47:45.071Z,97409.41
2023-01-17T01:50:12.351Z,97399.34
2023-01-17T01:52:41.365Z,97404.31
2023-01-17T01:55:11.266Z,97401.25
2023-01-17T01:57:39.584Z,97399.25
2023-01-17T02:00:11.569Z,97403.13
2023-01-17T02:02:38.064Z,97392.63
2023-01-17T02:05:04.984Z,97398.47
2023-01-17T02:07:33.711Z,97396.13
2023-01-17T02:10:00.495Z,97392.63
2023-01-17T02:12:27.384Z,97389.16
2023-01-17T02:14:53.691Z,97381.00
2023-01-17T02:17:35.114Z,97389.94
2023-01-17T02:20:04.384Z,97384.91
2023-01-17T02:22:49.510Z,97378.34
2023-01-17T02:25:15.782Z,97377.81
2023-01-17T02:27:57.292Z,97373.63
2023-01-17T02:30:30.901Z,97374.41
2023-01-17T02:32:57.232Z,97373.19
2023-01-17T02:35:23.491Z,97377.16
2023-01-17T02:38:01.679Z,97375.63
2023-01-17T02:40:28.253Z,97372.09
2023-01-17T02:42:58.654Z,97371.69
2023-01-17T02:45:25.036Z,97373.59
2023-01-17T02:47:51.747Z,97371.25
2023-01-17T02:50:20.510Z,97367.38
2023-01-17T02:53:04.969Z,97358.13
2023-01-17T02:55:34.426Z,97361.94
2023-01-17T02:58:00.682Z,97362.03
2023-01-17T03:00:31.901Z,97367.78
2023-01-17T03:03:02.929Z,97367.41
2023-01-17T03:05:36.902Z,97363.03
2023-01-17T03:08:03.767Z,97362.78
2023-01-17T03:10:32.607Z,97359.75
2023-01-17T03:13:00.109Z,97372.13
2023-01-17T03:15:26.982Z,97358.66
2023-01-17T03:17:55.088Z,97360.63
2023-01-17T03:20:22.673Z,97360.22
2023-01-17T03:22:49.091Z,97368.75
2023-01-17T03:25:16.289Z,97355.16
2023-01-17T03:27:42.592Z,97372.66
2023-01-17T03:30:09.149Z,97374.97
2023-01-17T03:32:35.591Z,97373.78
2023-01-17T03:35:01.905Z,97371.50
2023-01-17T03:37:28.199Z,97373.81
2023-01-17T03:39:54.935Z,97376.50
2023-01-17T03:42:21.209Z,97380.34
2023-01-17T03:44:47.672Z,97386.56
2023-01-17T03:47:14.064Z,97386.13
2023-01-17T03:49:40.478Z,97385.00
2023-01-17T03:52:07.499Z,97381.94
2023-01-17T03:54:33.901Z,97386.16
2023-01-17T03:57:00.247Z,97383.03
2023-01-17T03:59:26.575Z,97385.31
2023-01-17T04:01:52.942Z,97383.84
2023-01-17T04:04:19.302Z,97381.16
2023-01-17T04:06:45.801Z,97378.81
2023-01-17T04:09:12.147Z,97388.97
2023-01-17T04:11:38.424Z,97394.41
2023-01-17T04:14:04.811Z,97396.38
2023-01-17T04:16:31.927Z,97400.25
2023-01-17T04:18:58.488Z,97393.19
2023-01-17T04:21:24.810Z,97394.00
2023-01-17T04:23:51.122Z,97392.81
2023-01-17T04:26:17.436Z,97397.91
2023-01-17T04:28:43.739Z,97393.22
2023-01-17T04:31:14.010Z,97400.56
2023-01-17T04:33:40.345Z,97392.44
2023-01-17T04:36:06.712Z,97394.00
2023-01-17T04:38:33.043Z,97395.94
2023-01-17T04:40:59.345Z,97393.31
2023-01-17T04:43:25.652Z,97392.13
2023-01-17T04:45:58.528Z,97393.31
2023-01-17T04:48:25.002Z,97398.38
2023-01-17T04:50:51.334Z,97410.75
2023-01-17T04:53:17.679Z,97407.97
2023-01-17T04:55:46.997Z,97414.16
2023-01-17T04:58:13.299Z,97412.66
2023-01-17T05:00:39.629Z,97410.72
2023-01-17T05:03:05.970Z,97418.06
2023-01-17T05:05:32.329Z,97415.75
2023-01-17T05:07:58.802Z,97420.78
2023-01-17T05:10:25.437Z,97423.84
2023-01-17T05:12:55.650Z,97423.88
2023-01-17T05:15:22.312Z,97424.25
2023-01-17T05:17:48.668Z,97428.88
2023-01-17T05:20:14.995Z,97430.03
2023-01-17T05:22:41.287Z,97436.16
2023-01-17T05:25:07.762Z,97433.03
2023-01-17T05:27:34.124Z,97441.91
2023-01-17T05:30:00.422Z,97441.56
2023-01-17T05:32:26.720Z,97441.66
2023-01-17T05:34:52.997Z,97443.59
2023-01-17T05:37:19.307Z,97440.06
2023-01-17T05:39:45.595Z,97435.41
2023-01-17T05:42:11.890Z,97442.00
2023-01-17T05:44:38.667Z,97449.81
2023-01-17T05:47:04.964Z,97447.84
2023-01-17T05:49:31.281Z,97454.84
2023-01-17T05:51:57.953Z,97459.13
2023-01-17T05:54:24.254Z,97459.09
2023-01-17T05:56:50.556Z,97459.88
2023-01-17T05:59:25.623Z,97468.47
2023-01-17T06:02:02.411Z,97468.03
2023-01-17T06:04:28.859Z,97454.84
2023-01-17T06:06:55.242Z,97467.66
2023-01-17T06:09:21.561Z,97468.44
2023-01-17T06:11:47.970Z,97476.25
2023-01-17T06:14:14.273Z,97476.28
2023-01-17T06:16:40.566Z,97487.50
2023-01-17T06:19:06.867Z,97483.63
2023-01-17T06:21:33.180Z,97488.25
2023-01-17T06:23:59.447Z,97491.38
2023-01-17T06:26:25.792Z,97512.22
2023-01-17T06:28:52.102Z,97507.63
2023-01-17T06:31:18.453Z,97506.84
2023-01-17T06:33:44.838Z,97523.09
2023-01-17T06:36:11.258Z,97509.22
2023-01-17T06:38:37.536Z,97513.13
2023-01-17T06:41:04.413Z,97515.06
2023-01-17T06:43:33.517Z,97517.44
2023-01-17T06:46:00.703Z,97529.75
2023-01-17T06:48:27.176Z,97527.50
2023-01-17T06:50:53.558Z,97535.66
2023-01-17T06:53:19.890Z,97536.09
2023-01-17T06:55:46.247Z,97532.63
2023-01-17T06:58:12.579Z,97538.03
2023-01-17T07:00:40.765Z,97545.47
2023-01-17T07:03:11.832Z,97543.09
2023-01-17T07:05:38.136Z,97552.44
2023-01-17T07:08:04.655Z,97557.06
2023-01-17T07:10:31.018Z,97558.25
2023-01-17T07:13:00.643Z,97568.31
2023-01-17T07:15:27.017Z,97566.00
2023-01-17T07:17:53.384Z,97567.19
2023-01-17T07:20:19.713Z,97574.91
2023-01-17T07:22:46.117Z,97574.91
2023-01-17T07:25:12.526Z,97571.03
2023-01-17T07:27:38.805Z,97577.25
2023-01-17T07:30:05.375Z,97575.69
2023-01-17T07:32:31.713Z,97579.19
2023-01-17T07:34:58.161Z,97583.44
2023-01-17T07:37:26.252Z,97580.38
2023-01-17T07:39:52.903Z,97591.97
2023-01-17T07:42:19.185Z,97590.84
2023-01-17T07:44:45.523Z,97591.59
2023-01-17T07:47:12.082Z,97583.03
2023-01-17T07:49:38.532Z,97580.31
2023-01-17T07:52:08.065Z,97584.63
2023-01-17T07:54:34.684Z,97592.75
2023-01-17T07:57:01.275Z,97594.28
2023-01-17T07:59:27.619Z,97586.94
2023-01-17T08:01:54.049Z,97589.66
2023-01-17T08:04:20.424Z,97590.38
2023-01-17T08:06:48.627Z,97597.25
2023-01-17T08:09:15.021Z,97607.00
2023-01-17T08:11:41.313Z,97599.25
2023-01-17T08:14:07.644Z,97599.72
2023-01-17T08:16:34.113Z,97600.09
2023-01-17T08:19:00.496Z,97609.00
2023-01-17T08:21:29.540Z,97609.78
2023-01-17T08:23:56.307Z,97614.03
2023-01-17T08:26:22.798Z,97615.63
2023-01-17T08:28:49.899Z,97619.06
2023-01-17T08:31:17.564Z,97610.97
2023-01-17T08:33:44.102Z,97616.81
2023-01-17T08:36:10.520Z,97621.09
2023-01-17T08:38:36.831Z,97625.34
2023-01-17T08:41:03.152Z,97636.22
2023-01-17T08:43:29.542Z,97630.38
2023-01-17T08:45:56.161Z,97634.63
2023-01-17T08:48:25.330Z,97648.22
2023-01-17T08:50:51.648Z,97643.22
2023-01-17T08:53:23.138Z,97650.97
2023-01-17T08:55:56.745Z,97650.19
2023-01-17T08:58:23.275Z,97661.03
2023-01-17T09:00:49.889Z,97651.34
2023-01-17T09:03:16.291Z,97653.72
2023-01-17T09:05:42.745Z,97666.50
2023-01-17T09:08:09.109Z,97678.13
2023-01-17T09:10:35.501Z,97678.13
2023-01-17T09:13:01.892Z,97685.91
2023-01-17T09:15:28.236Z,97689.00
2023-01-17T09:17:57.625Z,97680.47
2023-01-17T09:20:24.865Z,97689.00
2023-01-17T09:22:51.428Z,97706.47
2023-01-17T09:25:17.745Z,97718.47
2023-01-17T09:27:46.992Z,97713.78
2023-01-17T09:30:13.661Z,97727.75
2023-01-17T09:32:39.999Z,97727.38
2023-01-17T09:35:07.905Z,97736.66
2023-01-17T09:37:34.193Z,97733.19
2023-01-17T09:40:00.563Z,97757.22
2023-01-17T09:42:35.656Z,97769.63
2023-01-17T09:45:02.412Z,97770.44
2023-01-17T09:47:39.145Z,97770.81
2023-01-17T09:50:08.674Z,97777.41
2023-01-17T09:52:35.021Z,97785.16
2023-01-17T09:55:02.617Z,97790.59
2023-01-17T09:57:31.859Z,97792.94
2023-01-17T10:00:17.091Z,97795.25
2023-01-17T10:02:54.519Z,97799.53
2023-01-17T10:05:36.523Z,97806.50
2023-01-17T10:08:25.713Z,97809.63
2023-01-17T10:11:07.694Z,97811.94
2023-01-17T10:13:42.854Z,97823.19
2023-01-17T10:16:14.988Z,97819.69
2023-01-17T10:18:47.336Z,97827.47
2023-01-17T10:21:33.041Z,97822.41
2023-01-17T10:24:03.591Z,97830.97
2023-01-17T10:26:30.039Z,97844.91
2023-01-17T10:29:00.696Z,97843.34
2023-01-17T10:31:28.377Z,97841.41
2023-01-17T10:33:56.090Z,97842.97
2023-01-17T10:36:35.821Z,97853.44
2023-01-17T10:39:12.064Z,97852.28
2023-01-17T10:41:41.149Z,97853.44
2023-01-17T10:44:18.106Z,97860.06
2023-01-17T10:46:52.536Z,97874.81
2023-01-17T10:49:20.729Z,97876.72
2023-01-17T10:52:06.061Z,97873.63
2023-01-17T10:54:40.711Z,97884.88
2023-01-17T10:57:13.669Z,97877.88
2023-01-17T10:59:40.000Z,97878.66
2023-01-17T11:02:15.086Z,97873.22
2023-01-17T11:04:42.293Z,97879.03
2023-01-17T11:07:14.541Z,97879.81
2023-01-17T11:09:45.012Z,97886.78
2023-01-17T11:12:34.407Z,97877.09
2023-01-17T11:15:00.846Z,97886.81
2023-01-17T11:17:27.850Z,97891.03
2023-01-17T11:19:54.503Z,97882.53
2023-01-17T11:22:21.114Z,97884.88
2023-01-17T11:24:49.455Z,97888.75
2023-01-17T11:27:26.852Z,97892.63
2023-01-17T11:30:05.569Z,97896.13
2023-01-17T11:32:32.950Z,97899.19
2023-01-17T11:35:07.686Z,97899.19
2023-01-17T11:37:35.111Z,97901.09
2023-01-17T11:40:20.295Z,97901.56
2023-01-17T11:42:46.689Z,97904.63
2023-01-17T11:45:22.634Z,97903.44
2023-01-17T11:47:48.988Z,97899.94
2023-01-17T11:50:25.583Z,97914.72
2023-01-17T11:52:51.988Z,97918.63
2023-01-17T11:55:22.876Z,97910.03
2023-01-17T11:57:50.380Z,97916.25
2023-01-17T12:00:23.195Z,97912.78
2023-01-17T12:03:11.030Z,97919.72
2023-01-17T12:05:37.333Z,97921.69
2023-01-17T12:08:14.284Z,97927.88
2023-01-17T12:10:40.613Z,97930.97
2023-01-17T12:13:25.765Z,97940.25
2023-01-17T12:16:32.584Z,97930.59
2023-01-17T12:18:58.876Z,97942.59
2023-01-17T12:21:35.978Z,97948.41
2023-01-17T12:24:21.027Z,97948.81
2023-01-17T12:26:56.924Z,97952.31
2023-01-17T12:29:23.251Z,97958.50
2023-01-17T12:31:49.516Z,97958.88
2023-01-17T12:34:28.312Z,97960.03
2023-01-17T12:37:01.986Z,97968.59
2023-01-17T12:39:35.963Z,97965.91
2023-01-17T12:42:13.389Z,97969.00
2023-01-17T12:44:45.559Z,97968.63
2023-01-17T12:47:14.378Z,97969.34
2023-01-17T12:49:56.370Z,97990.03
2023-01-17T12:52:25.809Z,97987.22
2023-01-17T12:54:57.036Z,97989.63
2023-01-17T12:57:26.100Z,97996.63
2023-01-17T12:59:58.252Z,97990.38
2023-01-17T13:02:47.553Z,98008.63
2023-01-17T13:05:17.679Z,98008.28
2023-01-17T13:07:53.192Z,98008.59
2023-01-17T13:10:32.067Z,98010.91
2023-01-17T13:13:12.171Z,98014.81
2023-01-17T13:15:40.461Z,98016.75
2023-01-17T13:18:10.690Z,98019.91
2023-01-17T13:20:57.913Z,98029.53
2023-01-17T13:23:36.157Z,98031.13
2023-01-17T13:26:03.318Z,98037.75
2023-01-17T13:28:29.650Z,98040.03
2023-01-17T13:31:05.274Z,98038.09
2023-01-17T13:33:31.598Z,98049.75
2023-01-17T13:35:59.674Z,98057.53
2023-01-17T13:38:36.499Z,98051.34
2023-01-17T13:41:21.496Z,98054.81
2023-01-17T13:44:06.624Z,98059.84
2023-01-17T13:46:52.796Z,98062.22
2023-01-17T13:49:33.294Z,98063.38
2023-01-17T13:52:05.045Z,98079.31
2023-01-17T13:54:32.593Z,98087.44
2023-01-17T13:57:22.065Z,98091.66
2023-01-17T13:59:48.592Z,98094.00
2023-01-17T14:02:33.265Z,98091.63
2023-01-17T14:05:05.718Z,98102.16
2023-01-17T14:07:33.591Z,98096.97
2023-01-17T14:09:59.905Z,98105.59
2023-01-17T14:12:31.350Z,98107.56
2023-01-17T14:15:00.663Z,98111.75
2023-01-17T14:17:34.053Z,98117.19
2023-01-17T14:20:06.417Z,98123.31
2023-01-17T14:22:37.736Z,98132.59
2023-01-17T14:25:14.939Z,98130.69
2023-01-17T14:27:59.920Z,98139.59
2023-01-17T14:30:26.283Z,98151.97
2023-01-17T14:32:58.736Z,98152.81
2023-01-17T14:35:28.428Z,98150.72
2023-01-17T14:37:57.510Z,98168.38
2023-01-17T14:40:30.552Z,98163.97
2023-01-17T14:43:02.889Z,98168.09
2023-01-17T14:45:30.748Z,98185.59
2023-01-17T14:48:01.595Z,98179.69
2023-01-17T14:50:29.736Z,98180.53
2023-01-17T14:53:11.197Z,98185.09
2023-01-17T14:55:38.581Z,98196.78
2023-01-17T14:58:04.897Z,98203.19
2023-01-17T15:00:33.572Z,98204.81
2023-01-17T15:03:00.605Z,98204.41
2023-01-17T15:05:28.744Z,98212.03
2023-01-17T15:07:56.440Z,98214.38
2023-01-17T15:10:28.165Z,98217.44
2023-01-17T15:12:56.695Z,98214.38
2023-01-17T15:15:27.410Z,98223.66
2023-01-17T15:18:15.220Z,98216.59
2023-01-17T15:20:43.543Z,98219.25
2023-01-17T15:23:13.363Z,98235.53
2023-01-17T15:25:39.741Z,98231.56
2023-01-17T15:28:09.458Z,98229.44
2023-01-17T15:30:35.903Z,98231.28
2023-01-17T15:33:02.690Z,98225.72
2023-01-17T15:35:29.622Z,98222.94
2023-01-17T15:37:58.178Z,98232.56
2023-01-17T15:40:25.347Z,98230.22
2023-01-17T15:42:54.057Z,98231.72
2023-01-17T15:45:22.986Z,98229.44
2023-01-17T15:47:49.441Z,98237.94
2023-01-17T15:50:28.572Z,98233.91
2023-01-17T15:52:56.576Z,98236.50
2023-01-17T15:55:36.388Z,98237.63
2023-01-17T15:58:03.144Z,98245.59
2023-01-17T16:00:38.287Z,98243.44
2023-01-17T16:03:34.173Z,98245.03
2023-01-17T16:06:01.099Z,98243.81
2023-01-17T16:08:31.949Z,98249.59
2023-01-17T16:11:02.632Z,98252.91
2023-01-17T16:13:33.829Z,98255.63
2023-01-17T16:16:13.240Z,98255.09
2023-01-17T16:18:40.657Z,98262.09
2023-01-17T16:21:17.111Z,98261.19
2023-01-17T16:23:43.672Z,98257.66
2023-01-17T16:26:10.916Z,98268.97
2023-01-17T16:28:38.382Z,98266.31
2023-01-17T16:31:05.006Z,98273.25
2023-01-17T16:33:31.449Z,98265.66
2023-01-17T16:35:57.864Z,98262.63
2023-01-17T16:38:24.272Z,98264.31
2023-01-17T16:40:50.680Z,98272.38
2023-01-17T16:43:19.007Z,98276.53
2023-01-17T16:45:46.472Z,98280.69
2023-01-17T16:48:12.903Z,98286.09
2023-01-17T16:50:47.945Z,98282.38
2023-01-17T16:53:14.705Z,98283.47
2023-01-17T16:55:41.971Z,98290.06
2023-01-17T16:58:08.279Z,98289.97
2023-01-17T17:00:34.741Z,98281.13
2023-01-17T17:03:01.172Z,98285.75
2023-01-17T17:05:27.695Z,98281.78
2023-01-17T17:07:54.294Z,98283.75
2023-01-17T17:10:21.858Z,98278.41
2023-01-17T17:12:48.181Z,98276.88
2023-01-17T17:15:15.795Z,98278.94
2023-01-17T17:17:43.007Z,98280.16
2023-01-17T17:20:14.058Z,98269.63
2023-01-17T17:22:44.286Z,98281.56
2023-01-17T17:25:11.925Z,98279.06
2023-01-17T17:27:38.346Z,98289.69
2023-01-17T17:30:04.889Z,98299.97
2023-01-17T17:32:32.305Z,98302.78
2023-01-17T17:34:58.779Z,98300.53
2023-01-17T17:37:28.671Z,98301.53
2023-01-17T17:39:55.783Z,98307.66
2023-01-17T17:42:22.277Z,98306.81
2023-01-17T17:44:48.594Z,98301.88
2023-01-17T17:47:16.226Z,98310.97
2023-01-17T17:49:43.282Z,98315.34
2023-01-17T17:52:09.641Z,98316.72
2023-01-17T17:54:36.117Z,98319.84
2023-01-17T17:57:02.682Z,98327.88
2023-01-17T17:59:29.771Z,98325.19
2023-01-17T18:01:56.248Z,98330.22
2023-01-17T18:04:22.642Z,98332.66
2023-01-17T18:06:49.033Z,98327.41
2023-01-17T18:09:15.531Z,98336.31
2023-01-17T18:11:42.645Z,98334.44
2023-01-17T18:14:10.870Z,98336.94
2023-01-17T18:16:41.551Z,98339.56
2023-01-17T18:19:11.375Z,98343.63
2023-01-17T18:21:38.593Z,98347.41
2023-01-17T18:24:07.075Z,98354.00
2023-01-17T18:26:41.615Z,98348.88
2023-01-17T18:29:09.626Z,98350.28
2023-01-17T18:31:36.006Z,98360.19
2023-01-17T18:34:07.840Z,98359.97
2023-01-17T18:36:34.834Z,98366.69
2023-01-17T18:39:01.715Z,98369.47
2023-01-17T18:41:29.611Z,98358.63
2023-01-17T18:43:59.067Z,98361.81
2023-01-17T18:46:26.144Z,98351.28
2023-01-17T18:48:54.820Z,98355.59
2023-01-17T18:51:21.798Z,98350.22
2023-01-17T18:53:48.424Z,98365.81
2023-01-17T18:56:15.899Z,98378.03
2023-01-17T18:58:43.307Z,98376.16
2023-01-17T19:01:09.879Z,98390.88
2023-01-17T19:03:36.890Z,98387.94
2023-01-17T19:06:06.539Z,98386.81
2023-01-17T19:08:36.380Z,98390.94
2023-01-17T19:11:04.338Z,98393.41
2023-01-17T19:13:32.550Z,98390.13
2023-01-17T19:15:59.464Z,98390.09
2023-01-17T19:18:25.949Z,98386.06
2023-01-17T19:20:52.488Z,98390.06
2023-01-17T19:23:22.099Z,98392.63
2023-01-17T19:25:57.315Z,98386.66
2023-01-17T19:28:26.699Z,98390.94
2023-01-17T19:31:06.288Z,98393.38
2023-01-17T19:33:33.738Z,98390.25
2023-01-17T19:36:01.017Z,98398.72
2023-01-17T19:38:30.055Z,98399.91
2023-01-17T19:40:56.328Z,98397.75
2023-01-17T19:43:22.887Z,98396.84
2023-01-17T19:45:58.772Z,98397.00
2023-01-17T19:48:25.607Z,98402.19
2023-01-17T19:50:52.282Z,98411.41
2023-01-17T19:53:18.646Z,98401.72
2023-01-17T19:55:45.277Z,98397.88
2023-01-17T19:58:13.164Z,98398.88
2023-01-17T20:00:46.515Z,98399.66
2023-01-17T20:03:13.193Z,98400.03
2023-01-17T20:05:39.666Z,98400.81
2023-01-17T20:08:06.266Z,98401.53
2023-01-17T20:10:32.620Z,98402.47
2023-01-17T20:12:59.168Z,98406.28
2023-01-17T20:15:26.425Z,98406.22
2023-01-17T20:17:53.145Z,98397.59
2023-01-17T20:20:19.607Z,98400.13
2023-01-17T20:22:45.988Z,98402.72
2023-01-17T20:25:12.646Z,98409.28
2023-01-17T20:27:40.458Z,98411.13
2023-01-17T20:30:19.222Z,98413.53
2023-01-17T20:32:46.670Z,98413.03
2023-01-17T20:35:13.384Z,98404.38
2023-01-17T20:37:39.662Z,98408.22
2023-01-17T20:40:07.244Z,98421.19
2023-01-17T20:42:36.028Z,98424.91
2023-01-17T20:45:03.091Z,98419.00
2023-01-17T20:47:29.681Z,98438.16
2023-01-17T20:49:56.035Z,98438.84
2023-01-17T20:52:22.330Z,98441.72
2023-01-17T20:54:49.915Z,98441.13
2023-01-17T20:57:16.201Z,98441.81
2023-01-17T20:59:42.502Z,98442.84
2023-01-17T21:02:10.636Z,98434.13
2023-01-17T21:04:37.059Z,98439.84
2023-01-17T21:07:03.929Z,98443.84
2023-01-17T21:09:30.331Z,98445.78
2023-01-17T21:12:01.048Z,98451.75
2023-01-17T21:14:28.366Z,98449.66
2023-01-17T21:16:54.916Z,98452.81
2023-01-17T21:19:21.522Z,98459.00
2023-01-17T21:21:48.739Z,98457.91
2023-01-17T21:24:18.504Z,98469.34
2023-01-17T21:26:45.821Z,98470.84
2023-01-17T21:29:13.144Z,98469.63
2023-01-17T21:31:40.868Z,98473.31
2023-01-17T21:34:08.202Z,98482.25
2023-01-17T21:36:37.194Z,98475.53
2023-01-17T21:39:04.977Z,98483.63
2023-01-17T21:41:35.589Z,98490.25
2023-01-17T21:44:03.313Z,98504.41
2023-01-17T21:46:30.218Z,98510.28
2023-01-17T21:48:57.510Z,98516.09
2023-01-17T21:51:24.358Z,98522.50
2023-01-17T21:53:50.964Z,98530.06
2023-01-17T21:56:35.820Z,98537.47
2023-01-17T21:59:02.402Z,98540.50
2023-01-17T22:01:30.081Z,98544.22
2023-01-17T22:04:01.043Z,98545.66
2023-01-17T22:06:29.160Z,98552.63
2023-01-17T22:08:56.046Z,98555.66
2023-01-17T22:11:23.825Z,98557.22
2023-01-17T22:13:50.199Z,98562.19
2023-01-17T22:16:17.754Z,98563.72
2023-01-17T22:18:44.665Z,98562.72
2023-01-17T22:21:12.929Z,98551.25
2023-01-17T22:23:40.454Z,98547.13
2023-01-17T22:26:08.900Z,98554.75
2023-01-17T22:28:35.443Z,98544.84
2023-01-17T22:31:08.974Z,98547.13
2023-01-17T22:33:36.037Z,98552.94
2023-01-17T22:36:02.329Z,98560.81
2023-01-17T22:38:28.647Z,98555.41
2023-01-17T22:41:01.099Z,98552.72
2023-01-17T22:43:27.393Z,98558.78
2023-01-17T22:45:58.680Z,98557.44
2023-01-17T22:48:25.129Z,98559.44
2023-01-17T22:50:56.344Z,98556.28
2023-01-17T22:53:22.644Z,98556.28
2023-01-17T22:55:49.160Z,98556.84
2023-01-17T22:58:15.445Z,98555.41
2023-01-17T23:00:41.747Z,98548.56
2023-01-17T23:03:08.223Z,98548.69
2023-01-17T23:05:34.568Z,98555.53
2023-01-17T23:08:02.340Z,98551.81
2023-01-17T23:10:47.505Z,98550.59
2023-01-17T23:13:13.806Z,98544.56
2023-01-17T23:15:58.494Z,98548.56
2023-01-17T23:18:43.428Z,98548.91
2023-01-17T23:21:09.760Z,98546.00
2023-01-17T23:23:36.073Z,98542.06
2023-01-17T23:26:02.401Z,98549.59
2023-01-17T23:28:28.753Z,98543.28
2023-01-17T23:31:00.084Z,98546.97
2023-01-17T23:33:26.466Z,98540.03
2023-01-17T23:35:53.283Z,98541.47
2023-01-17T23:38:25.862Z,98539.13
2023-01-17T23:41:11.426Z,98543.16
2023-01-17T23:43:37.717Z,98537.66
2023-01-17T23:46:05.046Z,98537.97
2023-01-17T23:48:31.585Z,98540.22
2023-01-17T23:50:59.098Z,98539.41
2023-01-17T23:53:26.048Z,98543.50
2023-01-17T23:55:53.380Z,98537.75
2023-01-17T23:58:20.660Z,98537.84
